createdAt,value
2022-09-07T00:00:06.662Z,1.90
2022-09-07T00:00:16.704Z,1.90
2022-09-07T00:00:26.734Z,1.80
2022-09-07T00:00:36.804Z,2.10
2022-09-07T00:00:46.973Z,2.30
2022-09-07T00:00:57.014Z,2.40
2022-09-07T00:01:07.053Z,2.20
2022-09-07T00:01:17.099Z,1.80
2022-09-07T00:01:27.137Z,2.10
2022-09-07T00:01:37.173Z,2.20
2022-09-07T00:01:47.212Z,2.30
2022-09-07T00:01:57.255Z,2.10
2022-09-07T00:02:07.305Z,2.00
2022-09-07T00:02:17.353Z,2.20
2022-09-07T00:02:27.394Z,2.10
2022-09-07T00:02:37.466Z,2.00
2022-09-07T00:02:47.554Z,2.00
2022-09-07T00:02:57.660Z,1.90
2022-09-07T00:03:07.907Z,2.00
2022-09-07T00:03:17.933Z,2.20
2022-09-07T00:03:28.043Z,2.20
2022-09-07T00:03:38.043Z,2.50
2022-09-07T00:03:48.103Z,2.20
2022-09-07T00:03:58.193Z,2.40
2022-09-07T00:04:08.275Z,2.40
2022-09-07T00:04:18.395Z,2.20
2022-09-07T00:04:28.527Z,2.20
2022-09-07T00:04:38.642Z,2.20
2022-09-07T00:04:48.688Z,2.40
2022-09-07T00:04:58.743Z,2.30
2022-09-07T00:05:08.785Z,2.70
2022-09-07T00:05:18.830Z,2.40
2022-09-07T00:05:28.863Z,2.50
2022-09-07T00:05:38.903Z,2.00
2022-09-07T00:05:48.944Z,2.10
2022-09-07T00:05:59.003Z,2.10
2022-09-07T00:06:09.056Z,2.20
2022-09-07T00:06:19.113Z,2.30
2022-09-07T00:06:29.154Z,2.10
2022-09-07T00:06:39.194Z,2.00
2022-09-07T00:06:49.233Z,1.90
2022-09-07T00:06:59.284Z,2.20
2022-09-07T00:07:09.333Z,2.10
2022-09-07T00:07:19.393Z,2.20
2022-09-07T00:07:29.434Z,2.00
2022-09-07T00:07:39.483Z,2.10
2022-09-07T00:07:49.533Z,2.10
2022-09-07T00:07:59.601Z,2.00
2022-09-07T00:08:09.651Z,2.10
2022-09-07T00:08:19.694Z,2.20
2022-09-07T00:08:29.843Z,2.20
2022-09-07T00:08:39.753Z,2.20
2022-09-07T00:08:49.805Z,2.20
2022-09-07T00:08:59.855Z,2.30
2022-09-07T00:09:09.915Z,2.20
2022-09-07T00:09:19.974Z,2.20
2022-09-07T00:09:30.033Z,2.10
2022-09-07T00:09:40.086Z,2.10
2022-09-07T00:09:52.560Z,2.20
2022-09-07T00:10:02.612Z,2.20
2022-09-07T00:10:12.672Z,2.20
2022-09-07T00:10:22.738Z,2.30
2022-09-07T00:10:32.791Z,2.10
2022-09-07T00:10:42.840Z,1.90
2022-09-07T00:10:52.903Z,2.00
2022-09-07T00:11:02.942Z,2.10
2022-09-07T00:11:12.997Z,2.10
2022-09-07T00:11:23.036Z,2.10
2022-09-07T00:11:33.083Z,2.40
2022-09-07T00:11:43.135Z,2.50
2022-09-07T00:11:53.183Z,2.30
2022-09-07T00:12:03.253Z,2.20
2022-09-07T00:12:13.311Z,2.10
2022-09-07T00:12:23.366Z,1.90
2022-09-07T00:12:33.414Z,1.80
2022-09-07T00:12:43.471Z,1.70
2022-09-07T00:12:53.551Z,1.80
2022-09-07T00:13:03.602Z,1.80
2022-09-07T00:13:13.663Z,2.30
2022-09-07T00:13:23.703Z,2.40
2022-09-07T00:13:33.754Z,2.50
2022-09-07T00:13:43.813Z,2.00
2022-09-07T00:13:53.894Z,2.00
2022-09-07T00:14:03.958Z,1.70
2022-09-07T00:14:14.013Z,2.10
2022-09-07T00:14:24.051Z,2.20
2022-09-07T00:14:34.094Z,2.40
2022-09-07T00:14:44.174Z,2.30
2022-09-07T00:14:54.233Z,2.20
2022-09-07T00:15:04.293Z,2.30
2022-09-07T00:15:14.342Z,2.20
2022-09-07T00:15:24.384Z,2.40
2022-09-07T00:15:34.433Z,2.40
2022-09-07T00:15:44.538Z,2.20
2022-09-07T00:15:54.613Z,2.20
2022-09-07T00:16:04.688Z,2.00
2022-09-07T00:16:14.785Z,2.10
2022-09-07T00:16:24.881Z,1.90
2022-09-07T00:16:35.009Z,2.00
2022-09-07T00:16:45.044Z,2.00
2022-09-07T00:16:55.092Z,2.00
2022-09-07T00:17:05.140Z,1.70
2022-09-07T00:17:15.185Z,1.90
2022-09-07T00:17:25.243Z,1.90
2022-09-07T00:17:35.302Z,1.90
2022-09-07T00:17:45.373Z,1.80
2022-09-07T00:17:55.443Z,1.90
2022-09-07T00:18:05.503Z,1.90
2022-09-07T00:18:15.590Z,1.90
2022-09-07T00:18:25.664Z,2.00
2022-09-07T00:18:35.717Z,2.10
2022-09-07T00:18:46.761Z,2.10
2022-09-07T00:18:55.814Z,2.10
2022-09-07T00:19:05.886Z,2.10
2022-09-07T00:19:15.942Z,2.30
2022-09-07T00:19:25.983Z,2.30
2022-09-07T00:19:36.013Z,2.20
2022-09-07T00:19:46.025Z,2.10
2022-09-07T00:19:56.056Z,2.00
2022-09-07T00:20:06.088Z,2.20
2022-09-07T00:20:16.124Z,2.20
2022-09-07T00:20:26.134Z,2.20
2022-09-07T00:20:36.172Z,2.20
2022-09-07T00:20:46.204Z,2.20
2022-09-07T00:20:56.244Z,2.10
2022-09-07T00:21:06.273Z,1.80
2022-09-07T00:21:16.286Z,1.70
2022-09-07T00:21:26.314Z,1.90
2022-09-07T00:21:36.335Z,2.00
2022-09-07T00:21:46.357Z,2.00
2022-09-07T00:21:56.373Z,2.00
2022-09-07T00:22:06.383Z,2.10
2022-09-07T00:22:16.404Z,2.50
2022-09-07T00:22:26.425Z,2.70
2022-09-07T00:22:36.444Z,2.60
2022-09-07T00:22:46.467Z,2.40
2022-09-07T00:22:56.484Z,2.30
2022-09-07T00:23:06.493Z,2.30
2022-09-07T00:23:16.511Z,2.40
2022-09-07T00:23:26.523Z,2.20
2022-09-07T00:23:36.543Z,2.10
2022-09-07T00:23:46.573Z,1.80
2022-09-07T00:23:56.604Z,2.10
2022-09-07T00:24:06.622Z,1.90
2022-09-07T00:24:16.633Z,2.20
2022-09-07T00:24:26.662Z,2.20
2022-09-07T00:24:36.683Z,2.40
2022-09-07T00:24:46.692Z,2.30
2022-09-07T00:24:56.713Z,2.20
2022-09-07T00:25:06.734Z,2.30
2022-09-07T00:25:16.745Z,2.30
2022-09-07T00:25:26.776Z,2.50
2022-09-07T00:25:36.813Z,2.50
2022-09-07T00:25:50.060Z,2.60
2022-09-07T00:25:57.853Z,2.50
2022-09-07T00:26:07.903Z,2.10
2022-09-07T00:26:17.943Z,2.30
2022-09-07T00:26:27.971Z,2.40
2022-09-07T00:26:37.974Z,2.60
2022-09-07T00:26:47.981Z,2.40
2022-09-07T00:26:58.004Z,2.30
2022-09-07T00:27:08.030Z,2.30
2022-09-07T00:27:18.034Z,2.30
2022-09-07T00:27:28.043Z,2.30
2022-09-07T00:27:38.053Z,2.30
2022-09-07T00:27:48.071Z,2.30
2022-09-07T00:27:58.073Z,2.20
2022-09-07T00:28:08.085Z,2.30
2022-09-07T00:28:18.084Z,2.30
2022-09-07T00:28:28.148Z,2.20
2022-09-07T00:28:38.163Z,1.90
2022-09-07T00:28:48.173Z,2.00
2022-09-07T00:28:58.173Z,2.20
2022-09-07T00:29:08.193Z,2.40
2022-09-07T00:29:18.222Z,2.30
2022-09-07T00:29:28.244Z,2.20
2022-09-07T00:29:38.265Z,2.20
2022-09-07T00:29:48.304Z,2.10
2022-09-07T00:29:58.323Z,2.30
2022-09-07T00:30:08.357Z,2.20
2022-09-07T00:30:18.363Z,2.30
2022-09-07T00:30:28.383Z,2.20
2022-09-07T00:30:38.385Z,2.20
2022-09-07T00:30:48.414Z,2.20
2022-09-07T00:30:58.533Z,2.20
2022-09-07T00:31:08.604Z,2.20
2022-09-07T00:31:18.648Z,2.30
2022-09-07T00:31:28.698Z,2.30
2022-09-07T00:31:38.750Z,2.30
2022-09-07T00:31:48.956Z,2.30
2022-09-07T00:31:59.035Z,2.20
2022-09-07T00:32:09.084Z,2.10
2022-09-07T00:32:19.125Z,2.20
2022-09-07T00:32:29.181Z,2.20
2022-09-07T00:32:39.225Z,2.30
2022-09-07T00:32:49.321Z,2.20
2022-09-07T00:32:59.363Z,2.00
2022-09-07T00:33:09.415Z,1.90
2022-09-07T00:33:19.474Z,1.80
2022-09-07T00:33:29.516Z,2.10
2022-09-07T00:33:39.563Z,2.00
2022-09-07T00:33:49.605Z,2.00
2022-09-07T00:33:59.643Z,1.80
2022-09-07T00:34:09.695Z,1.90
2022-09-07T00:34:19.844Z,2.00
2022-09-07T00:34:29.884Z,2.20
2022-09-07T00:34:39.933Z,2.30
2022-09-07T00:34:49.973Z,2.10
2022-09-07T00:35:00.077Z,2.00
2022-09-07T00:35:10.104Z,1.80
2022-09-07T00:35:20.163Z,1.80
2022-09-07T00:35:30.204Z,1.80
2022-09-07T00:35:40.251Z,1.70
2022-09-07T00:35:50.283Z,1.90
2022-09-07T00:36:00.341Z,1.90
2022-09-07T00:36:10.375Z,1.70
2022-09-07T00:36:20.423Z,1.50
2022-09-07T00:36:30.453Z,1.80
2022-09-07T00:36:40.500Z,2.50
2022-09-07T00:36:50.556Z,2.60
2022-09-07T00:37:00.614Z,2.30
2022-09-07T00:37:10.654Z,2.10
2022-09-07T00:37:20.694Z,2.10
2022-09-07T00:37:30.736Z,2.00
2022-09-07T00:37:40.784Z,2.10
2022-09-07T00:37:50.823Z,2.20
2022-09-07T00:38:00.871Z,2.40
2022-09-07T00:38:10.903Z,2.40
2022-09-07T00:38:20.953Z,2.20
2022-09-07T00:38:31.077Z,2.10
2022-09-07T00:38:41.033Z,2.00
2022-09-07T00:38:51.093Z,1.90
2022-09-07T00:39:01.187Z,1.90
2022-09-07T00:39:11.223Z,1.90
2022-09-07T00:39:21.299Z,2.10
2022-09-07T00:39:31.362Z,1.90
2022-09-07T00:39:41.445Z,1.90
2022-09-07T00:39:51.543Z,2.00
2022-09-07T00:40:01.686Z,2.00
2022-09-07T00:40:11.750Z,2.20
2022-09-07T00:40:21.805Z,1.90
2022-09-07T00:40:31.857Z,1.90
2022-09-07T00:40:41.904Z,1.90
2022-09-07T00:40:51.954Z,2.00
2022-09-07T00:41:02.007Z,1.90
2022-09-07T00:41:12.033Z,1.90
2022-09-07T00:41:22.083Z,1.70
2022-09-07T00:41:32.124Z,1.80
2022-09-07T00:41:42.163Z,1.90
2022-09-07T00:41:52.204Z,2.20
2022-09-07T00:42:02.252Z,2.10
2022-09-07T00:42:12.283Z,2.10
2022-09-07T00:42:22.336Z,2.00
2022-09-07T00:42:32.374Z,2.20
2022-09-07T00:42:42.417Z,2.20
2022-09-07T00:42:52.465Z,2.20
2022-09-07T00:43:02.503Z,2.30
2022-09-07T00:43:12.554Z,2.20
2022-09-07T00:43:22.595Z,2.30
2022-09-07T00:43:32.647Z,2.00
2022-09-07T00:43:42.685Z,2.00
2022-09-07T00:43:52.734Z,1.70
2022-09-07T00:44:02.784Z,1.80
2022-09-07T00:44:12.834Z,2.10
2022-09-07T00:44:22.877Z,2.10
2022-09-07T00:44:32.924Z,2.20
2022-09-07T00:44:42.995Z,2.00
2022-09-07T00:44:53.046Z,1.90
2022-09-07T00:45:03.077Z,2.00
2022-09-07T00:45:13.121Z,2.30
2022-09-07T00:45:23.164Z,2.30
2022-09-07T00:45:33.211Z,2.20
2022-09-07T00:45:43.245Z,2.10
2022-09-07T00:45:53.293Z,2.20
2022-09-07T00:46:03.363Z,2.20
2022-09-07T00:46:13.468Z,2.10
2022-09-07T00:46:23.648Z,2.10
2022-09-07T00:46:33.763Z,1.80
2022-09-07T00:46:43.857Z,1.70
2022-09-07T00:46:53.957Z,1.70
2022-09-07T00:47:04.022Z,1.90
2022-09-07T00:47:14.064Z,2.00
2022-09-07T00:47:24.104Z,2.00
2022-09-07T00:47:34.154Z,2.10
2022-09-07T00:47:44.194Z,2.10
2022-09-07T00:47:54.254Z,2.10
2022-09-07T00:48:04.314Z,1.90
2022-09-07T00:48:14.354Z,2.20
2022-09-07T00:48:24.413Z,2.20
2022-09-07T00:48:34.484Z,2.50
2022-09-07T00:48:44.544Z,2.30
2022-09-07T00:48:54.593Z,2.30
2022-09-07T00:49:04.632Z,2.20
2022-09-07T00:49:14.703Z,2.20
2022-09-07T00:49:24.751Z,2.30
2022-09-07T00:49:34.793Z,2.40
2022-09-07T00:49:44.824Z,2.50
2022-09-07T00:49:54.906Z,2.80
2022-09-07T00:50:04.974Z,3.10
2022-09-07T00:50:15.025Z,3.00
2022-09-07T00:50:25.064Z,3.10
2022-09-07T00:50:35.111Z,3.00
2022-09-07T00:50:45.154Z,3.00
2022-09-07T00:50:55.202Z,2.70
2022-09-07T00:51:05.243Z,2.60
2022-09-07T00:51:15.275Z,2.70
2022-09-07T00:51:25.314Z,2.60
2022-09-07T00:51:35.354Z,2.70
2022-09-07T00:51:45.411Z,2.50
2022-09-07T00:51:55.445Z,2.40
2022-09-07T00:52:05.494Z,2.10
2022-09-07T00:52:15.533Z,2.00
2022-09-07T00:52:25.573Z,2.40
2022-09-07T00:52:35.614Z,2.60
2022-09-07T00:52:45.671Z,2.70
2022-09-07T00:52:55.713Z,2.60
2022-09-07T00:53:05.763Z,2.60
2022-09-07T00:53:15.803Z,2.40
2022-09-07T00:53:25.853Z,2.30
2022-09-07T00:53:35.898Z,2.20
2022-09-07T00:53:45.964Z,2.10
2022-09-07T00:53:56.014Z,2.30
2022-09-07T00:54:06.081Z,2.50
2022-09-07T00:54:16.125Z,2.50
2022-09-07T00:54:26.204Z,2.30
2022-09-07T00:54:36.243Z,1.80
2022-09-07T00:54:46.257Z,1.90
2022-09-07T00:54:56.262Z,2.00
2022-09-07T00:55:06.275Z,2.20
2022-09-07T00:55:16.293Z,2.20
2022-09-07T00:55:26.303Z,2.10
2022-09-07T00:55:36.314Z,2.10
2022-09-07T00:55:46.327Z,1.80
2022-09-07T00:55:56.345Z,2.10
2022-09-07T00:56:06.355Z,1.90
2022-09-07T00:56:16.366Z,2.00
2022-09-07T00:56:26.376Z,1.70
2022-09-07T00:56:36.383Z,1.80
2022-09-07T00:56:46.394Z,1.90
2022-09-07T00:56:56.433Z,2.10
2022-09-07T00:57:06.434Z,2.00
2022-09-07T00:57:16.444Z,2.00
2022-09-07T00:57:26.461Z,2.00
2022-09-07T00:57:36.464Z,2.00
2022-09-07T00:57:46.473Z,1.90
2022-09-07T00:57:56.484Z,2.10
2022-09-07T00:58:06.504Z,2.00
2022-09-07T00:58:16.513Z,1.90
2022-09-07T00:58:26.576Z,1.90
2022-09-07T00:58:36.633Z,2.20
2022-09-07T00:58:46.653Z,2.40
2022-09-07T00:58:56.674Z,2.20
2022-09-07T00:59:06.683Z,2.10
2022-09-07T00:59:16.698Z,1.90
2022-09-07T00:59:26.706Z,1.90
2022-09-07T00:59:36.734Z,2.10
2022-09-07T00:59:46.775Z,2.10
2022-09-07T00:59:56.861Z,2.10
2022-09-07T01:00:06.923Z,1.90
2022-09-07T01:00:16.983Z,2.10
2022-09-07T01:00:27.023Z,2.10
2022-09-07T01:00:37.066Z,2.20
2022-09-07T01:00:47.094Z,2.10
2022-09-07T01:00:57.144Z,2.00
2022-09-07T01:01:07.209Z,2.10
2022-09-07T01:01:17.298Z,2.20
2022-09-07T01:01:27.508Z,2.00
2022-09-07T01:01:37.531Z,1.70
2022-09-07T01:01:47.644Z,1.70
2022-09-07T01:01:57.853Z,2.00
2022-09-07T01:02:07.931Z,2.20
2022-09-07T01:02:17.980Z,2.30
2022-09-07T01:02:28.080Z,2.40
2022-09-07T01:02:38.214Z,2.30
2022-09-07T01:02:48.193Z,2.50
2022-09-07T01:02:58.154Z,2.30
2022-09-07T01:03:08.137Z,2.30
2022-09-07T01:03:18.231Z,2.10
2022-09-07T01:03:28.264Z,2.20
2022-09-07T01:03:38.311Z,2.10
2022-09-07T01:03:48.345Z,2.10
2022-09-07T01:03:58.392Z,2.00
2022-09-07T01:04:08.424Z,2.00
2022-09-07T01:04:18.464Z,2.10
2022-09-07T01:04:28.584Z,2.20
2022-09-07T01:04:38.633Z,2.30
2022-09-07T01:04:48.684Z,2.30
2022-09-07T01:04:58.735Z,2.20
2022-09-07T01:05:09.650Z,2.00
2022-09-07T01:05:19.062Z,2.10
2022-09-07T01:05:29.126Z,2.00
2022-09-07T01:05:39.164Z,2.10
2022-09-07T01:05:49.215Z,2.00
2022-09-07T01:05:59.273Z,2.00
2022-09-07T01:06:09.333Z,1.90
2022-09-07T01:06:19.385Z,2.10
2022-09-07T01:06:29.472Z,2.50
2022-09-07T01:06:39.618Z,2.50
2022-09-07T01:06:49.654Z,2.30
2022-09-07T01:06:59.715Z,2.10
2022-09-07T01:07:09.754Z,1.90
2022-09-07T01:07:19.807Z,2.00
2022-09-07T01:07:29.834Z,2.10
2022-09-07T01:07:39.887Z,2.10
2022-09-07T01:07:49.917Z,2.10
2022-09-07T01:07:59.974Z,2.10
2022-09-07T01:08:10.033Z,2.40
2022-09-07T01:08:20.064Z,2.50
2022-09-07T01:08:30.261Z,2.40
2022-09-07T01:08:40.216Z,2.40
2022-09-07T01:08:50.267Z,2.30
2022-09-07T01:09:00.314Z,2.70
2022-09-07T01:09:10.359Z,2.30
2022-09-07T01:09:20.395Z,2.50
2022-09-07T01:09:30.435Z,2.30
2022-09-07T01:09:40.491Z,2.40
2022-09-07T01:09:50.535Z,2.30
2022-09-07T01:10:01.204Z,2.20
2022-09-07T01:10:10.723Z,2.20
2022-09-07T01:10:20.768Z,2.10
2022-09-07T01:10:30.836Z,2.20
2022-09-07T01:10:40.891Z,2.20
2022-09-07T01:10:50.941Z,2.30
2022-09-07T01:11:01.023Z,2.20
2022-09-07T01:11:11.065Z,2.20
2022-09-07T01:11:21.112Z,2.20
2022-09-07T01:11:31.153Z,2.00
2022-09-07T01:11:41.202Z,2.20
2022-09-07T01:11:51.406Z,2.50
2022-09-07T01:12:01.295Z,2.70
2022-09-07T01:12:11.422Z,2.60
2022-09-07T01:12:21.486Z,2.50
2022-09-07T01:12:31.533Z,2.20
2022-09-07T01:12:41.577Z,2.00
2022-09-07T01:12:51.625Z,1.70
2022-09-07T01:13:01.674Z,1.80
2022-09-07T01:13:11.727Z,2.00
2022-09-07T01:13:21.764Z,2.10
2022-09-07T01:13:31.814Z,2.20
2022-09-07T01:13:41.863Z,2.10
2022-09-07T01:13:51.904Z,2.20
2022-09-07T01:14:01.954Z,2.10
2022-09-07T01:14:12.005Z,2.00
2022-09-07T01:14:22.114Z,2.10
2022-09-07T01:14:32.172Z,2.00
2022-09-07T01:14:42.225Z,2.10
2022-09-07T01:14:52.273Z,2.30
2022-09-07T01:15:02.334Z,2.20
2022-09-07T01:15:12.381Z,2.40
2022-09-07T01:15:22.424Z,2.00
2022-09-07T01:15:32.494Z,2.10
2022-09-07T01:15:42.579Z,2.00
2022-09-07T01:15:52.669Z,2.30
2022-09-07T01:16:02.802Z,2.20
2022-09-07T01:16:12.912Z,2.20
2022-09-07T01:16:23.021Z,2.10
2022-09-07T01:16:33.063Z,2.00
2022-09-07T01:16:43.104Z,2.00
2022-09-07T01:16:53.156Z,2.10
2022-09-07T01:17:03.204Z,2.00
2022-09-07T01:17:13.273Z,1.90
2022-09-07T01:17:23.314Z,1.80
2022-09-07T01:17:33.363Z,2.10
2022-09-07T01:17:43.412Z,2.20
2022-09-07T01:17:53.465Z,2.20
2022-09-07T01:18:03.514Z,2.10
2022-09-07T01:18:13.565Z,2.10
2022-09-07T01:18:23.686Z,2.00
2022-09-07T01:18:33.781Z,2.00
2022-09-07T01:18:43.824Z,2.20
2022-09-07T01:18:53.882Z,2.20
2022-09-07T01:19:03.924Z,2.10
2022-09-07T01:19:13.973Z,1.70
2022-09-07T01:19:24.013Z,1.80
2022-09-07T01:19:34.063Z,1.80
2022-09-07T01:19:44.132Z,2.20
2022-09-07T01:19:54.186Z,2.00
2022-09-07T01:20:04.232Z,2.00
2022-09-07T01:20:14.283Z,1.80
2022-09-07T01:20:24.341Z,1.90
2022-09-07T01:20:34.394Z,1.90
2022-09-07T01:20:44.434Z,2.00
2022-09-07T01:20:54.484Z,1.80
2022-09-07T01:21:04.532Z,1.70
2022-09-07T01:21:14.575Z,1.60
2022-09-07T01:21:24.633Z,1.50
2022-09-07T01:21:34.682Z,1.90
2022-09-07T01:21:44.724Z,2.20
2022-09-07T01:21:54.774Z,2.30
2022-09-07T01:22:04.826Z,2.00
2022-09-07T01:22:14.884Z,1.80
2022-09-07T01:22:24.929Z,1.90
2022-09-07T01:22:34.985Z,1.90
2022-09-07T01:22:49.506Z,2.00
2022-09-07T01:22:59.543Z,2.10
2022-09-07T01:23:09.592Z,2.00
2022-09-07T01:23:19.634Z,1.70
2022-09-07T01:23:29.683Z,1.70
2022-09-07T01:23:39.723Z,1.90
2022-09-07T01:23:49.772Z,2.00
2022-09-07T01:23:59.813Z,2.00
2022-09-07T01:24:09.861Z,2.00
2022-09-07T01:24:19.914Z,2.00
2022-09-07T01:24:29.965Z,1.90
2022-09-07T01:24:40.016Z,1.90
2022-09-07T01:24:50.075Z,1.90
2022-09-07T01:25:00.154Z,2.00
2022-09-07T01:25:10.181Z,1.90
2022-09-07T01:25:20.245Z,1.90
2022-09-07T01:25:30.290Z,1.80
2022-09-07T01:25:40.344Z,1.70
2022-09-07T01:25:50.393Z,1.80
2022-09-07T01:26:00.441Z,1.80
2022-09-07T01:26:10.484Z,2.00
2022-09-07T01:26:20.536Z,1.90
2022-09-07T01:26:30.575Z,1.80
2022-09-07T01:26:40.631Z,1.70
2022-09-07T01:26:50.674Z,1.90
2022-09-07T01:27:00.726Z,2.00
2022-09-07T01:27:10.779Z,2.10
2022-09-07T01:27:20.833Z,1.80
2022-09-07T01:27:30.873Z,1.90
2022-09-07T01:27:40.935Z,2.20
2022-09-07T01:27:51.006Z,2.40
2022-09-07T01:28:01.057Z,2.40
2022-09-07T01:28:11.102Z,2.30
2022-09-07T01:28:21.152Z,2.50
2022-09-07T01:28:31.354Z,2.30
2022-09-07T01:28:41.285Z,2.10
2022-09-07T01:28:51.333Z,2.00
2022-09-07T01:29:01.393Z,2.00
2022-09-07T01:29:11.442Z,2.20
2022-09-07T01:29:21.502Z,2.10
2022-09-07T01:29:31.565Z,2.00
2022-09-07T01:29:41.623Z,1.80
2022-09-07T01:29:51.674Z,1.90
2022-09-07T01:30:01.747Z,2.20
2022-09-07T01:30:11.794Z,2.30
2022-09-07T01:30:21.847Z,2.40
2022-09-07T01:30:31.892Z,2.50
2022-09-07T01:30:41.969Z,2.60
2022-09-07T01:30:52.064Z,2.60
2022-09-07T01:31:02.128Z,2.50
2022-09-07T01:31:12.208Z,2.40
2022-09-07T01:31:22.293Z,2.30
2022-09-07T01:31:32.274Z,2.10
2022-09-07T01:31:42.354Z,1.90
2022-09-07T01:31:52.397Z,2.00
2022-09-07T01:32:02.444Z,2.00
2022-09-07T01:32:12.504Z,2.00
2022-09-07T01:32:22.558Z,2.10
2022-09-07T01:32:32.603Z,2.30
2022-09-07T01:32:42.648Z,2.30
2022-09-07T01:32:52.696Z,2.40
2022-09-07T01:33:02.743Z,2.00
2022-09-07T01:33:12.786Z,2.00
2022-09-07T01:33:22.834Z,1.80
2022-09-07T01:33:32.881Z,1.80
2022-09-07T01:33:42.955Z,2.10
2022-09-07T01:33:53.004Z,2.10
2022-09-07T01:34:03.044Z,2.30
2022-09-07T01:34:13.094Z,2.10
2022-09-07T01:34:23.143Z,2.30
2022-09-07T01:34:33.206Z,2.20
2022-09-07T01:34:43.254Z,2.20
2022-09-07T01:34:53.337Z,1.80
2022-09-07T01:35:03.374Z,1.80
2022-09-07T01:35:13.434Z,2.00
2022-09-07T01:35:23.475Z,2.30
2022-09-07T01:35:33.525Z,2.40
2022-09-07T01:35:43.584Z,2.30
2022-09-07T01:35:53.652Z,2.10
2022-09-07T01:36:03.703Z,1.90
2022-09-07T01:36:13.763Z,1.80
2022-09-07T01:36:23.804Z,1.90
2022-09-07T01:36:33.844Z,1.80
2022-09-07T01:36:43.904Z,2.00
2022-09-07T01:36:53.976Z,2.00
2022-09-07T01:37:04.014Z,2.00
2022-09-07T01:37:14.110Z,1.80
2022-09-07T01:37:24.124Z,1.90
2022-09-07T01:37:34.204Z,1.90
2022-09-07T01:37:44.246Z,2.20
2022-09-07T01:37:57.044Z,1.90
2022-09-07T01:38:04.433Z,1.90
2022-09-07T01:38:14.474Z,1.80
2022-09-07T01:38:24.577Z,1.80
2022-09-07T01:38:34.622Z,2.00
2022-09-07T01:38:44.667Z,1.90
2022-09-07T01:38:54.711Z,2.00
2022-09-07T01:39:04.754Z,1.90
2022-09-07T01:39:14.803Z,2.10
2022-09-07T01:39:24.936Z,2.40
2022-09-07T01:39:35.024Z,2.20
2022-09-07T01:39:45.142Z,2.10
2022-09-07T01:39:55.223Z,1.70
2022-09-07T01:40:05.283Z,1.90
2022-09-07T01:40:15.342Z,1.90
2022-09-07T01:40:25.344Z,2.10
2022-09-07T01:40:35.354Z,2.00
2022-09-07T01:40:45.364Z,2.20
2022-09-07T01:40:55.422Z,2.00
2022-09-07T01:41:05.474Z,1.80
2022-09-07T01:41:15.533Z,1.80
2022-09-07T01:41:25.585Z,1.80
2022-09-07T01:41:35.646Z,2.00
2022-09-07T01:41:45.718Z,1.90
2022-09-07T01:41:55.782Z,1.90
2022-09-07T01:42:05.834Z,1.90
2022-09-07T01:42:15.894Z,1.90
2022-09-07T01:42:25.943Z,1.90
2022-09-07T01:42:36.004Z,2.00
2022-09-07T01:42:46.064Z,1.80
2022-09-07T01:42:56.104Z,2.00
2022-09-07T01:43:06.162Z,2.10
2022-09-07T01:43:16.205Z,2.20
2022-09-07T01:43:26.254Z,2.10
2022-09-07T01:43:36.313Z,1.90
2022-09-07T01:43:46.365Z,2.00
2022-09-07T01:43:56.404Z,2.20
2022-09-07T01:44:06.464Z,2.50
2022-09-07T01:44:16.511Z,2.40
2022-09-07T01:44:26.561Z,2.10
2022-09-07T01:44:36.614Z,1.90
2022-09-07T01:44:46.677Z,1.70
2022-09-07T01:44:56.722Z,1.90
2022-09-07T01:45:06.776Z,1.90
2022-09-07T01:45:16.825Z,1.90
2022-09-07T01:45:26.877Z,1.90
2022-09-07T01:45:36.925Z,2.00
2022-09-07T01:45:46.976Z,2.00
2022-09-07T01:45:57.063Z,2.20
2022-09-07T01:46:07.211Z,2.20
2022-09-07T01:46:17.313Z,2.30
2022-09-07T01:46:27.418Z,2.10
2022-09-07T01:46:37.572Z,2.00
2022-09-07T01:46:47.679Z,1.80
2022-09-07T01:46:57.712Z,1.80
2022-09-07T01:47:07.762Z,2.00
2022-09-07T01:47:17.802Z,2.00
2022-09-07T01:47:27.874Z,2.00
2022-09-07T01:47:37.923Z,2.00
2022-09-07T01:47:47.972Z,2.00
2022-09-07T01:47:58.014Z,2.30
2022-09-07T01:48:08.075Z,2.30
2022-09-07T01:48:18.135Z,2.20
2022-09-07T01:48:28.268Z,2.20
2022-09-07T01:48:38.305Z,2.00
2022-09-07T01:48:48.369Z,2.00
2022-09-07T01:48:58.421Z,1.80
2022-09-07T01:49:08.483Z,2.10
2022-09-07T01:49:18.534Z,1.80
2022-09-07T01:49:28.590Z,1.80
2022-09-07T01:49:38.644Z,1.80
2022-09-07T01:49:48.694Z,2.20
2022-09-07T01:49:58.744Z,2.40
2022-09-07T01:50:08.849Z,2.40
2022-09-07T01:50:18.884Z,2.40
2022-09-07T01:50:28.942Z,2.60
2022-09-07T01:50:38.986Z,2.50
2022-09-07T01:50:49.046Z,2.60
2022-09-07T01:50:59.105Z,2.40
2022-09-07T01:51:09.183Z,2.30
2022-09-07T01:51:19.234Z,2.10
2022-09-07T01:51:29.274Z,2.10
2022-09-07T01:51:39.334Z,2.30
2022-09-07T01:51:49.384Z,2.20
2022-09-07T01:51:59.434Z,2.10
2022-09-07T01:52:09.494Z,2.00
2022-09-07T01:52:19.552Z,1.80
2022-09-07T01:52:29.594Z,1.80
2022-09-07T01:52:39.642Z,1.80
2022-09-07T01:52:49.714Z,1.80
2022-09-07T01:52:59.775Z,1.70
2022-09-07T01:53:09.824Z,1.90
2022-09-07T01:53:19.881Z,2.00
2022-09-07T01:53:29.926Z,2.10
2022-09-07T01:53:39.979Z,1.80
2022-09-07T01:53:50.020Z,1.70
2022-09-07T01:54:00.073Z,1.90
2022-09-07T01:54:10.121Z,1.90
2022-09-07T01:54:20.174Z,2.00
2022-09-07T01:54:30.224Z,1.90
2022-09-07T01:54:40.282Z,1.90
2022-09-07T01:54:50.324Z,1.90
2022-09-07T01:55:00.383Z,1.90
2022-09-07T01:55:10.425Z,2.00
2022-09-07T01:55:20.481Z,2.00
2022-09-07T01:55:30.535Z,1.80
2022-09-07T01:55:40.584Z,1.70
2022-09-07T01:55:50.624Z,1.80
2022-09-07T01:56:00.692Z,1.90
2022-09-07T01:56:10.734Z,2.00
2022-09-07T01:56:20.784Z,2.00
2022-09-07T01:56:30.834Z,2.10
2022-09-07T01:56:40.882Z,2.00
2022-09-07T01:56:50.932Z,2.00
2022-09-07T01:57:00.973Z,1.80
2022-09-07T01:57:11.014Z,1.80
2022-09-07T01:57:21.064Z,1.90
2022-09-07T01:57:31.119Z,1.90
2022-09-07T01:57:41.154Z,1.90
2022-09-07T01:57:51.194Z,2.00
2022-09-07T01:58:01.253Z,2.00
2022-09-07T01:58:11.296Z,2.00
2022-09-07T01:58:21.344Z,1.90
2022-09-07T01:58:31.644Z,1.90
2022-09-07T01:58:41.472Z,2.00
2022-09-07T01:58:51.514Z,2.10
2022-09-07T01:59:01.571Z,2.30
2022-09-07T01:59:11.614Z,2.30
2022-09-07T01:59:21.673Z,2.10
2022-09-07T01:59:31.705Z,2.10
2022-09-07T01:59:41.775Z,2.10
2022-09-07T01:59:51.832Z,2.10
2022-09-07T02:00:01.882Z,2.00
2022-09-07T02:00:11.932Z,1.90
2022-09-07T02:00:21.975Z,1.80
2022-09-07T02:00:32.014Z,2.00
2022-09-07T02:00:42.054Z,1.70
2022-09-07T02:00:52.103Z,1.70
2022-09-07T02:01:02.143Z,1.40
2022-09-07T02:01:12.350Z,1.90
2022-09-07T02:01:22.324Z,1.90
2022-09-07T02:01:32.411Z,2.10
2022-09-07T02:01:42.490Z,1.80
2022-09-07T02:01:52.618Z,1.80
2022-09-07T02:02:02.762Z,1.70
2022-09-07T02:02:12.689Z,2.10
2022-09-07T02:02:22.770Z,2.10
2022-09-07T02:02:32.882Z,2.00
2022-09-07T02:02:42.971Z,1.60
2022-09-07T02:02:53.072Z,1.70
2022-09-07T02:03:03.149Z,1.80
2022-09-07T02:03:13.192Z,2.10
2022-09-07T02:03:23.225Z,2.10
2022-09-07T02:03:33.273Z,2.10
2022-09-07T02:03:43.315Z,1.90
2022-09-07T02:03:53.364Z,2.00
2022-09-07T02:04:03.412Z,1.70
2022-09-07T02:04:13.454Z,1.80
2022-09-07T02:04:23.494Z,1.80
2022-09-07T02:04:33.534Z,1.90
2022-09-07T02:04:43.586Z,2.20
2022-09-07T02:04:53.657Z,2.20
2022-09-07T02:05:03.685Z,2.10
2022-09-07T02:05:13.734Z,1.90
2022-09-07T02:05:23.802Z,1.50
2022-09-07T02:05:33.853Z,1.70
2022-09-07T02:05:43.884Z,1.80
2022-09-07T02:05:53.934Z,2.00
2022-09-07T02:06:03.974Z,1.90
2022-09-07T02:06:14.024Z,1.90
2022-09-07T02:06:24.063Z,2.00
2022-09-07T02:06:34.104Z,2.00
2022-09-07T02:06:44.153Z,2.00
2022-09-07T02:06:54.196Z,1.90
2022-09-07T02:07:04.235Z,1.80
2022-09-07T02:07:14.283Z,1.90
2022-09-07T02:07:24.324Z,1.80
2022-09-07T02:07:34.367Z,1.90
2022-09-07T02:07:44.412Z,1.70
2022-09-07T02:07:54.454Z,1.90
2022-09-07T02:08:04.494Z,2.00
2022-09-07T02:08:14.537Z,2.30
2022-09-07T02:08:24.602Z,2.20
2022-09-07T02:08:34.622Z,2.30
2022-09-07T02:08:44.665Z,2.20
2022-09-07T02:08:54.705Z,2.30
2022-09-07T02:09:04.755Z,2.10
2022-09-07T02:09:14.794Z,2.00
2022-09-07T02:09:24.854Z,2.10
2022-09-07T02:09:34.904Z,2.10
2022-09-07T02:09:44.968Z,2.00
2022-09-07T02:09:55.014Z,2.10
2022-09-07T02:10:05.408Z,2.10
2022-09-07T02:10:15.141Z,2.30
2022-09-07T02:10:25.184Z,2.30
2022-09-07T02:10:35.234Z,2.30
2022-09-07T02:10:45.282Z,2.10
2022-09-07T02:10:55.336Z,2.10
2022-09-07T02:11:05.384Z,2.10
2022-09-07T02:11:15.444Z,2.00
2022-09-07T02:11:25.484Z,1.90
2022-09-07T02:11:35.545Z,1.90
2022-09-07T02:11:45.595Z,2.00
2022-09-07T02:11:55.655Z,1.90
2022-09-07T02:12:05.734Z,1.90
2022-09-07T02:12:15.798Z,2.00
2022-09-07T02:12:25.834Z,1.90
2022-09-07T02:12:35.893Z,2.20
2022-09-07T02:12:45.944Z,2.20
2022-09-07T02:12:56.003Z,2.20
2022-09-07T02:13:06.044Z,2.00
2022-09-07T02:13:16.094Z,1.90
2022-09-07T02:13:26.144Z,1.80
2022-09-07T02:13:36.194Z,1.80
2022-09-07T02:13:46.234Z,2.00
2022-09-07T02:13:56.307Z,2.10